Time;durP1;ratioP1;P1;durP2;ratioP2;P2;SDS_P1;SDS_P2;PMS_P1;PMS_P2;Temp;Humidity;BMP_temperature;BMP_pressure;BME280_temperature;BME280_humidity;BME280_pressure;Samples;Min_cycle;Max_cycle;Signal;HPM_P1;HPM_P2
2022/08/15 00:01:20;;;;;;;7.55;6.70;;;;;;;22.94;67.05;69327.25;4926211;29;20040;-77
2022/08/15 00:03:51;;;;;;;6.78;6.07;;;;;;;;;;4928627;29;20035;-77
2022/08/15 00:06:22;;;;;;;7.43;6.68;;;;;;;22.88;67.07;69320.41;4926280;29;20031;-77
2022/08/15 00:08:54;;;;;;;8.85;6.90;;;;;;;22.84;67.91;69321.22;4926059;29;20488;-77
2022/08/15 00:11:25;;;;;;;7.63;6.55;;;;;;;;;;4927856;29;20035;-77
2022/08/15 00:13:57;;;;;;;8.18;6.90;;;;;;;22.73;67.83;69304.34;4928433;29;20075;-77
2022/08/15 00:16:23;;;;;;;9.10;6.72;;;;;;;22.67;68.01;69291.47;4926706;29;20703;-77
2022/08/15 00:18:49;;;;;;;7.80;6.97;;;;;;;22.61;68.33;69290.03;4929489;29;20059;-76
2022/08/15 00:21:19;;;;;;;9.40;6.85;;;;;;;22.58;69.07;69287.16;4928437;29;20514;-77
2022/08/15 00:23:44;;;;;;;9.70;7.43;;;;;;;;;;4940890;29;20193;-76
2022/08/15 00:26:10;;;;;;;8.90;7.10;;;;;;;;;;4936836;29;20050;-77
2022/08/15 00:28:35;;;;;;;9.30;7.18;;;;;;;22.41;69.25;69262.84;4926819;29;20099;-77
2022/08/15 00:31:01;;;;;;;10.05;6.82;;;;;;;;;;4931347;29;20043;-76
2022/08/15 00:33:28;;;;;;;8.83;7.57;;;;;;;22.35;69.37;69261.41;4930523;29;20048;-76
2022/08/15 00:35:54;;;;;;;8.70;7.68;;;;;;;22.27;70.29;69247.41;4930775;29;20706;-78
2022/08/15 00:38:23;;;;;;;9.27;7.38;;;;;;;22.19;70.32;69238.22;4942786;29;20119;-77
2022/08/15 00:43:39;;;;;;;7.97;7.15;;;;;;;22.09;71.41;69232.19;4943998;28;20119;-78
2022/08/15 00:46:06;;;;;;;9.65;8.30;;;;;;;;;;4926801;29;20036;-76
2022/08/15 00:48:43;;;;;;;10.25;7.43;;;;;;;21.97;72.07;69218.44;4917539;29;20127;-77
2022/08/15 00:51:15;;;;;;;10.23;8.70;;;;;;;21.87;72.43;69207.56;4926773;29;20056;-77
2022/08/15 00:53:45;;;;;;;10.52;8.18;;;;;;;21.76;73.37;69195.56;4928424;29;20043;-77
2022/08/15 00:56:12;;;;;;;10.88;8.60;;;;;;;21.69;73.51;69187.53;4926790;28;20074;-76
2022/08/15 00:58:40;;;;;;;10.73;8.90;;;;;;;21.63;74.00;69181.22;4930796;29;20419;-77
2022/08/15 01:01:08;;;;;;;10.82;8.50;;;;;;;21.53;74.77;69169.78;4931036;28;20050;-77
2022/08/15 01:03:35;;;;;;;11.65;9.30;;;;;;;;;;4930619;29;20048;-77
2022/08/15 01:06:03;;;;;;;10.18;8.73;;;;;;;21.49;74.50;69165.22;4927298;29;20468;-77
2022/08/15 01:08:30;;;;;;;10.52;9.38;;;;;;;;;;4932471;29;20043;-76
2022/08/15 01:10:57;;;;;;;11.63;8.52;;;;;;;21.34;75.22;69142.59;4930988;29;20260;-76
2022/08/15 01:13:23;;;;;;;10.77;9.02;;;;;;;21.26;75.74;69139.47;4931577;29;20111;-76
2022/08/15 01:15:48;;;;;;;10.05;8.65;;;;;;;;;;4930436;29;20516;-77
2022/08/15 01:18:14;;;;;;;9.90;8.55;;;;;;;21.23;75.22;69130.03;4932153;29;20043;-76
2022/08/15 01:20:40;;;;;;;11.13;8.77;;;;;;;;;;4931474;29;20043;-76
2022/08/15 01:23:05;;;;;;;10.65;9.50;;;;;;;;;;4930129;29;20110;-77
2022/08/15 01:25:38;;;;;;;10.30;9.20;;;;;;;21.07;76.86;69117.72;4931224;29;20106;-76
2022/08/15 01:28:07;;;;;;;9.30;8.40;;;;;;;21.03;76.67;69113.72;4927997;28;20044;-76
2022/08/15 01:30:44;;;;;;;12.07;9.45;;;;;;;21.01;76.82;69105.44;4932206;29;20178;-77
2022/08/15 01:33:09;;;;;;;10.10;9.10;;;;;;;;;;4926093;29;20058;-77
2022/08/15 01:35:35;;;;;;;10.85;8.73;;;;;;;;;;4929296;29;20040;-77
2022/08/15 01:38:02;;;;;;;10.18;9.07;;;;;;;;;;4927319;29;20777;-77
2022/08/15 01:40:36;;;;;;;13.05;9.30;;;;;;;;;;4930130;29;20035;-77
2022/08/15 01:43:04;;;;;;;13.15;9.25;;;;;;;20.99;77.42;69111.25;4926153;29;20047;-77
2022/08/15 01:45:30;;;;;;;11.13;9.43;;;;;;;;;;4928645;29;21102;-76
2022/08/15 01:48:12;;;;;;;10.30;9.05;;;;;;;20.93;77.59;69105.53;4931398;29;20048;-76
2022/08/15 01:50:47;;;;;;;10.95;9.30;;;;;;;20.94;78.30;69104.00;4945296;29;20044;-75
2022/08/15 01:53:19;;;;;;;10.40;8.85;;;;;;;;;;4932876;29;20059;-77
2022/08/15 01:55:50;;;;;;;11.25;10.02;;;;;;;21.10;77.38;69116.31;4933638;29;20047;-78
2022/08/15 01:58:16;;;;;;;9.88;8.88;;;;;;;21.14;77.29;69125.72;4932547;29;20063;-78
2022/08/15 02:00:59;;;;;;;13.00;9.88;;;;;;;;;;4933671;28;20040;-77
2022/08/15 02:03:33;;;;;;;12.20;9.40;;;;;;;21.25;76.54;69137.72;4931525;29;20048;-77
2022/08/15 02:06:05;;;;;;;11.25;8.60;;;;;;;21.22;75.79;69134.31;4930482;28;20151;-77
2022/08/15 02:08:30;;;;;;;10.63;9.40;;;;;;;21.21;75.89;69127.75;4931561;29;20075;-76
2022/08/15 02:10:56;;;;;;;9.73;8.73;;;;;;;;;;4929775;29;20067;-77
2022/08/15 02:13:22;;;;;;;9.73;8.73;;;;;;;21.03;76.73;69107.72;4931141;29;20656;-78
2022/08/15 02:15:48;;;;;;;12.57;9.73;;;;;;;20.94;77.11;69098.00;4931712;29;20138;-77
2022/08/15 02:18:13;;;;;;;10.80;9.63;;;;;;;20.96;76.90;69106.25;4934025;29;20040;-77
2022/08/15 02:20:39;;;;;;;13.10;9.80;;;;;;;20.95;76.55;69105.13;4934103;29;20052;-76
2022/08/15 02:23:04;;;;;;;14.48;9.45;;;;;;;;;;4934293;29;20040;-75
2022/08/15 02:25:29;;;;;;;11.03;9.37;;;;;;;20.92;76.41;69095.72;4932413;29;20067;-76
2022/08/15 02:27:55;;;;;;;12.55;9.40;;;;;;;;;;4933747;29;20310;-77
2022/08/15 02:30:21;;;;;;;12.27;9.38;;;;;;;;;;4929021;29;20039;-76
2022/08/15 02:32:47;;;;;;;11.23;9.48;;;;;;;;;;4915870;29;20052;-78
2022/08/15 02:35:15;;;;;;;11.35;9.60;;;;;;;20.98;75.25;69108.00;4935126;29;20685;-78
2022/08/15 02:37:41;;;;;;;10.23;9.00;;;;;;;;;;4933575;28;20043;-76
2022/08/15 02:40:11;;;;;;;11.30;9.70;;;;;;;20.95;75.46;69099.16;4934940;29;20819;-78
2022/08/15 02:42:38;;;;;;;10.95;9.23;;;;;;;20.98;75.16;69102.56;4947138;28;20130;-76
2022/08/15 02:45:05;;;;;;;10.88;8.80;;;;;;;;;;4934386;28;20686;-78
2022/08/15 02:47:33;;;;;;;11.52;10.05;;;;;;;;;;4935153;29;20134;-77
2022/08/15 02:50:00;;;;;;;11.75;9.85;;;;;;;20.97;74.87;69101.41;4935412;29;20047;-77
2022/08/15 02:52:25;;;;;;;11.20;10.00;;;;;;;;;;4926310;29;20048;-76
2022/08/15 02:54:50;;;;;;;12.37;9.10;;;;;;;20.97;74.49;69106.84;4934648;29;20047;-77
2022/08/15 02:57:16;;;;;;;11.05;9.63;;;;;;;21.00;74.79;69109.69;4934061;29;20299;-76
2022/08/15 02:59:41;;;;;;;10.27;9.10;;;;;;;20.99;74.31;69108.56;4939173;29;20043;-76
2022/08/15 03:02:07;;;;;;;10.20;8.77;;;;;;;21.00;73.93;69109.69;4929547;28;20082;-77
2022/08/15 03:04:35;;;;;;;10.23;8.95;;;;;;;20.94;74.28;69104.00;4931179;29;20066;-77
2022/08/15 03:07:00;;;;;;;10.98;9.77;;;;;;;;;;4930740;29;20511;-76
2022/08/15 03:09:26;;;;;;;13.45;10.43;;;;;;;;;;4927808;29;20056;-76
2022/08/15 03:11:51;;;;;;;12.20;9.65;;;;;;;20.94;73.92;69103.41;4932950;29;20127;-76
2022/08/15 03:14:20;;;;;;;10.50;8.77;;;;;;;20.87;74.67;69095.97;4932595;29;20039;-77
2022/08/15 03:16:46;;;;;;;11.52;9.60;;;;;;;20.90;74.50;69093.41;4931306;29;20106;-76
2022/08/15 03:19:16;;;;;;;12.20;9.32;;;;;;;20.91;74.03;69092.41;4932437;29;20048;-76
2022/08/15 03:21:42;;;;;;;12.27;9.93;;;;;;;;;;4930201;29;20043;-77
2022/08/15 03:24:09;;;;;;;9.82;8.80;;;;;;;20.95;74.29;69099.72;4930962;29;20035;-77
2022/08/15 03:26:34;;;;;;;11.77;8.85;;;;;;;;;;4931265;29;20040;-76
2022/08/15 03:29:01;;;;;;;11.00;9.52;;;;;;;21.05;73.20;69115.41;4931507;29;20059;-76
2022/08/15 03:31:26;;;;;;;12.63;9.73;;;;;;;21.10;72.96;69115.72;4932536;29;20058;-78
2022/08/15 03:33:52;;;;;;;11.63;9.85;;;;;;;21.10;72.80;69121.16;4931793;29;20669;-78
2022/08/15 03:36:19;;;;;;;11.85;9.40;;;;;;;21.08;72.90;69114.00;4930187;29;20071;-77
2022/08/15 03:38:45;;;;;;;12.38;9.10;;;;;;;21.08;73.24;69119.41;4931329;29;20048;-77
2022/08/15 03:41:13;;;;;;;12.25;9.27;;;;;;;;;;4929114;29;20039;-77
2022/08/15 03:43:39;;;;;;;10.68;8.70;;;;;;;21.26;71.50;69133.44;4928373;28;20047;-77
2022/08/15 03:46:08;;;;;;;10.13;8.52;;;;;;;21.27;71.07;69140.59;4928219;29;20620;-77
2022/08/15 03:48:43;;;;;;;12.00;9.00;;;;;;;21.33;70.66;69139.34;4925627;29;20106;-77
2022/08/15 03:51:10;;;;;;;9.38;8.38;;;;;;;21.47;69.92;69156.94;4928273;28;20048;-77
2022/08/15 03:53:43;;;;;;;9.90;8.52;;;;;;;21.55;69.20;69166.69;4927290;29;20048;-77
2022/08/15 03:56:11;;;;;;;11.00;9.35;;;;;;;21.55;69.08;69174.81;4923581;29;20039;-77
2022/08/15 03:58:38;;;;;;;9.80;8.57;;;;;;;21.54;68.63;69164.94;4927126;29;20052;-77
2022/08/15 04:01:08;;;;;;;10.13;8.98;;;;;;;21.56;68.84;69172.66;4929406;29;20032;-78
2022/08/15 04:03:34;;;;;;;10.32;8.75;;;;;;;21.57;68.56;69176.50;4916630;29;20064;-77
2022/08/15 04:06:02;;;;;;;12.38;8.75;;;;;;;;;;4911239;29;20397;-77
2022/08/15 04:08:31;;;;;;;9.77;8.63;;;;;;;;;;4911131;29;22644;-77
2022/08/15 04:11:01;;;;;;;10.05;8.38;;;;;;;21.46;69.74;69156.34;4924107;29;20524;-77
2022/08/15 04:13:28;;;;;;;10.35;8.70;;;;;;;21.35;69.92;69143.78;4927446;28;20051;-77
2022/08/15 04:15:59;;;;;;;11.50;9.20;;;;;;;21.39;69.23;69153.78;4925959;28;20546;-77
2022/08/15 04:18:25;;;;;;;12.40;9.63;;;;;;;21.40;69.17;69150.06;4928043;29;20062;-77
2022/08/15 04:20:53;;;;;;;10.27;8.57;;;;;;;21.43;68.82;69158.34;4929080;29;20492;-77
2022/08/15 04:23:18;;;;;;;10.68;9.15;;;;;;;;;;4929080;29;20131;-77
2022/08/15 04:25:44;;;;;;;10.80;9.55;;;;;;;21.52;68.49;69162.66;4929523;29;20119;-77
2022/08/15 04:28:10;;;;;;;10.60;9.45;;;;;;;;;;4927894;29;20712;-77
2022/08/15 04:30:37;;;;;;;11.15;10.02;;;;;;;;;;4925347;29;20047;-77
2022/08/15 04:33:10;;;;;;;10.82;9.05;;;;;;;;;;4930774;29;20512;-76
2022/08/15 04:35:37;;;;;;;13.43;9.82;;;;;;;21.46;68.00;69164.47;4930253;29;20620;-77
2022/08/15 04:38:03;;;;;;;11.25;9.48;;;;;;;21.49;68.04;69164.63;4932554;29;20090;-77
2022/08/15 04:40:29;;;;;;;11.50;9.40;;;;;;;;;;4928000;29;20058;-76
2022/08/15 04:42:54;;;;;;;13.35;9.57;;;;;;;;;;4931540;29;20040;-77
2022/08/15 04:45:23;;;;;;;12.38;8.73;;;;;;;21.48;67.84;69163.50;4931193;29;20048;-76
2022/08/15 04:47:49;;;;;;;13.77;9.02;;;;;;;21.46;68.79;69155.78;4928054;29;20126;-77
2022/08/15 04:50:14;;;;;;;12.57;9.38;;;;;;;21.39;68.63;69154.34;4930353;29;20039;-77
2022/08/15 04:52:45;;;;;;;10.45;8.30;;;;;;;21.35;68.42;69149.19;4925980;29;20062;-77
2022/08/15 04:55:13;;;;;;;13.15;9.00;;;;;;;21.31;68.73;69145.16;4930970;29;20032;-77
2022/08/15 04:57:38;;;;;;;11.88;9.05;;;;;;;21.30;68.33;69144.03;4930186;29;20051;-76
2022/08/15 05:00:11;;;;;;;11.85;9.13;;;;;;;21.33;67.97;69142.03;4930382;29;20051;-77
2022/08/15 05:02:37;;;;;;;14.45;8.90;;;;;;;21.33;67.95;69152.31;4930745;29;20499;-77
2022/08/15 05:05:05;;;;;;;15.15;9.30;;;;;;;21.37;68.24;69146.06;4929873;29;20451;-77
2022/08/15 05:07:31;;;;;;;13.73;9.27;;;;;;;21.40;67.04;69149.50;4930438;28;20036;-76
2022/08/15 05:09:57;;;;;;;12.25;8.75;;;;;;;;;;4930052;29;20046;-76
2022/08/15 05:12:23;;;;;;;11.13;9.15;;;;;;;21.46;66.88;69161.78;4931973;29;20102;-77
2022/08/15 05:14:48;;;;;;;11.43;9.32;;;;;;;;;;4929707;29;20123;-77
2022/08/15 05:17:14;;;;;;;15.48;9.70;;;;;;;21.48;66.91;69163.50;4929579;29;20051;-77
2022/08/15 05:19:39;;;;;;;10.80;9.43;;;;;;;21.48;66.71;69164.06;4928387;29;20628;-77
2022/08/15 05:22:05;;;;;;;12.93;9.55;;;;;;;21.49;66.96;69164.63;4932041;29;20127;-76
2022/08/15 05:24:30;;;;;;;14.40;9.85;;;;;;;21.45;66.51;69160.63;4930175;29;20185;-77
2022/08/15 05:26:55;;;;;;;11.23;9.38;;;;;;;21.49;67.24;69165.22;4931647;29;20110;-77
2022/08/15 05:29:21;;;;;;;12.57;9.40;;;;;;;21.48;67.14;69164.06;4930162;29;20043;-77
2022/08/15 05:31:46;;;;;;;13.43;9.50;;;;;;;21.47;66.85;69157.50;4928562;29;20624;-77
2022/08/15 05:34:12;;;;;;;11.80;9.10;;;;;;;;;;4931501;29;20043;-77
2022/08/15 05:36:37;;;;;;;10.10;8.80;;;;;;;21.47;66.36;69162.38;4929514;29;20043;-76
2022/08/15 05:39:12;;;;;;;14.50;9.68;;;;;;;;;;4930102;28;20813;-77
2022/08/15 05:41:53;;;;;;;11.50;9.68;;;;;;;21.44;66.53;69154.09;4931375;28;20119;-76
2022/08/15 05:44:39;;;;;;;12.65;9.57;;;;;;;21.38;67.14;69158.06;4930526;29;20558;-77
2022/08/15 05:47:16;;;;;;;13.48;11.02;;;;;;;21.35;67.36;69152.47;4914618;29;20048;-76
2022/08/15 05:49:42;;;;;;;14.23;11.70;;;;;;;;;;4944670;28;20523;-76
2022/08/15 05:52:35;;;;;;;13.67;10.70;;;;;;;21.29;67.68;69142.88;4932189;29;20110;-77
2022/08/15 05:55:12;;;;;;;11.52;10.32;;;;;;;21.29;67.67;69142.88;4928187;29;20520;-77
2022/08/15 05:57:56;;;;;;;13.77;11.48;;;;;;;;;;4926095;29;20071;-77
2022/08/15 06:00:24;;;;;;;14.07;11.40;;;;;;;21.27;67.50;69140.03;4926770;29;20035;-76
2022/08/15 06:02:59;;;;;;;14.50;12.00;;;;;;;21.24;67.79;69131.75;4929939;28;20056;-77
2022/08/15 06:05:37;;;;;;;12.52;11.25;;;;;;;;;;4928866;29;20048;-76
2022/08/15 06:08:10;;;;;;;13.20;11.80;;;;;;;21.16;68.20;69122.59;4926112;29;20047;-76
2022/08/15 06:10:41;;;;;;;14.57;12.25;;;;;;;21.17;67.81;69124.28;4922449;29;20736;-76
2022/08/15 06:13:13;;;;;;;14.85;11.90;;;;;;;;;;4930470;29;20028;-76
2022/08/15 06:16:17;;;;;;;15.27;11.88;;;;;;;21.15;67.88;69121.47;4926078;29;20460;-76
2022/08/15 06:18:45;;;;;;;14.05;12.43;;;;;;;21.21;67.66;69135.88;4900176;29;20048;-76
2022/08/15 06:21:21;;;;;;;19.17;12.70;;;;;;;;;;4930625;29;20039;-76
2022/08/15 06:24:21;;;;;;;15.48;11.95;;;;;;;21.27;67.89;69140.59;4930559;29;20062;-76
2022/08/15 06:27:09;;;;;;;15.70;11.88;;;;;;;21.29;67.19;69136.88;4937776;28;20036;-76
2022/08/15 06:29:41;;;;;;;16.02;11.27;;;;;;;;;;4919741;29;20075;-76
2022/08/15 06:32:12;;;;;;;17.75;11.55;;;;;;;21.27;66.81;69140.59;4922184;29;20039;-76
2022/08/15 06:34:56;;;;;;;16.85;11.65;;;;;;;21.29;66.80;69142.88;4927472;29;20043;-75
2022/08/15 06:37:51;;;;;;;12.52;10.80;;;;;;;21.33;66.46;69147.47;4922637;29;20059;-76
2022/08/15 06:40:20;;;;;;;15.55;12.00;;;;;;;;;;4925688;29;20040;-75
2022/08/15 06:42:46;;;;;;;18.35;10.63;;;;;;;21.45;65.88;69160.63;4929981;29;20043;-76
2022/08/15 06:45:26;;;;;;;13.25;10.85;;;;;;;21.38;65.55;69147.78;4928745;29;20401;-76
2022/08/15 06:47:58;;;;;;;10.88;9.65;;;;;;;21.45;65.51;69162.78;4925962;28;20084;-76
2022/08/15 06:50:26;;;;;;;13.30;9.80;;;;;;;;;;4929051;29;20046;-76
2022/08/15 06:53:03;;;;;;;13.73;10.23;;;;;;;21.52;64.39;69170.78;4929063;28;20506;-75
2022/08/15 06:55:40;;;;;;;11.90;9.77;;;;;;;21.49;64.22;69159.22;4927413;29;20584;-77
2022/08/15 06:58:16;;;;;;;10.65;8.68;;;;;;;21.51;64.05;69161.50;4927524;29;20075;-76
2022/08/15 07:00:45;;;;;;;11.70;8.82;;;;;;;;;;4927130;29;20047;-76
2022/08/15 07:03:51;;;;;;;16.55;9.05;;;;;;;21.50;63.71;69157.66;4930004;29;20039;-76
2022/08/15 07:06:18;;;;;;;10.73;8.43;;;;;;;;;;4924153;29;20051;-76
2022/08/15 07:08:46;;;;;;;10.80;7.90;;;;;;;;;;4927819;29;20534;-77
2022/08/15 07:11:11;;;;;;;13.05;8.38;;;;;;;;;;4926974;29;20043;-76
2022/08/15 07:13:46;;;;;;;16.07;8.57;;;;;;;;;;4930307;29;20044;-77
2022/08/15 07:16:21;;;;;;;12.02;7.75;;;;;;;21.58;62.40;69170.09;4927605;29;20385;-76
2022/08/15 07:18:51;;;;;;;10.30;7.93;;;;;;;21.60;62.29;69171.81;4928953;29;20111;-76
2022/08/15 07:21:17;;;;;;;11.80;7.95;;;;;;;;;;4928589;29;20062;-76
2022/08/15 07:24:01;;;;;;;9.20;7.10;;;;;;;;;;4935963;28;20039;-76
2022/08/15 07:26:29;;;;;;;10.77;7.97;;;;;;;21.57;62.57;69173.78;4920884;28;20079;-77
2022/08/15 07:29:00;;;;;;;9.93;7.97;;;;;;;21.54;62.53;69164.94;4944760;28;20138;-77
2022/08/15 07:31:33;;;;;;;9.70;7.63;;;;;;;21.60;62.70;69172.38;4930034;29;20043;-77
2022/08/15 07:34:16;;;;;;;11.88;8.40;;;;;;;;;;4928014;29;20191;-76
2022/08/15 07:36:55;;;;;;;9.20;7.75;;;;;;;21.58;62.97;69174.97;4926807;29;20463;-76
2022/08/15 07:39:29;;;;;;;12.50;7.63;;;;;;;21.61;62.57;69181.09;4929170;29;20559;-76
2022/08/15 07:41:54;;;;;;;10.85;8.05;;;;;;;;;;4928761;29;20407;-76
2022/08/15 07:44:20;;;;;;;10.02;6.80;;;;;;;21.68;62.15;69180.97;4929099;29;20047;-76
2022/08/15 07:46:56;;;;;;;11.38;7.00;;;;;;;21.64;62.16;69176.41;4929908;29;20043;-77
2022/08/15 07:49:31;;;;;;;10.10;6.93;;;;;;;21.70;61.70;69183.25;4929373;29;20047;-77
2022/08/15 07:52:20;;;;;;;8.57;6.88;;;;;;;;;;4926985;29;20047;-77
2022/08/15 07:54:47;;;;;;;;;;;;;;;21.79;61.40;69198.41;4926856;29;20094;-76
2022/08/15 07:57:18;;;;;;;8.55;6.13;;;;;;;;;;4927128;29;20546;-77
2022/08/15 08:00:05;;;;;;;9.00;5.80;;;;;;;21.81;61.06;69203.41;4927067;29;20040;-77
2022/08/15 08:02:40;;;;;;;9.15;5.70;;;;;;;21.88;60.88;69203.28;4928113;29;20043;-77
2022/08/15 08:05:06;;;;;;;11.98;6.18;;;;;;;21.83;61.30;69195.41;4927966;29;20044;-76
2022/08/15 08:07:36;;;;;;;8.00;5.65;;;;;;;21.88;60.67;69203.28;4926721;29;20066;-76
2022/08/15 08:10:27;;;;;;;8.80;5.82;;;;;;;21.94;60.77;69206.88;4928551;29;20055;-76
2022/08/15 08:12:58;;;;;;;8.07;5.72;;;;;;;21.93;60.43;69214.44;4924670;29;20099;-76
2022/08/15 08:15:40;;;;;;;7.88;5.70;;;;;;;;;;4925470;29;20047;-76
2022/08/15 08:18:16;;;;;;;7.25;5.22;;;;;;;21.97;60.84;69213.03;4928841;29;20063;-76
2022/08/15 08:20:48;;;;;;;8.82;5.80;;;;;;;;;;4925437;29;20046;-76
2022/08/15 08:23:30;;;;;;;10.68;5.50;;;;;;;;;;4926611;29;20050;-76
2022/08/15 08:26:13;;;;;;;9.00;5.53;;;;;;;22.09;60.76;69232.19;4927602;29;20090;-78
2022/08/15 08:28:44;;;;;;;9.23;4.97;;;;;;;;;;4934474;29;20043;-79
2022/08/15 08:31:19;;;;;;;7.85;5.13;;;;;;;22.11;60.70;69237.19;4935950;29;20051;-77
2022/08/15 08:33:59;;;;;;;9.77;6.20;;;;;;;22.14;60.51;69237.91;4931425;29;20040;-79
2022/08/15 08:37:07;;;;;;;9.43;5.50;;;;;;;22.17;60.82;69233.22;4926676;29;20075;-76
2022/08/15 08:39:54;;;;;;;12.02;5.70;;;;;;;22.15;61.11;69239.03;4906857;29;20056;-76
2022/08/15 08:42:51;;;;;;;10.07;6.35;;;;;;;22.18;60.79;69242.53;4886759;29;20041;-78
2022/08/15 08:45:28;;;;;;;12.10;6.20;;;;;;;22.21;60.61;69245.94;4914290;29;20575;-77
2022/08/15 08:48:18;;;;;;;9.27;5.68;;;;;;;22.22;61.27;69249.81;4927652;29;20048;-78
2022/08/15 08:51:05;;;;;;;10.95;6.57;;;;;;;22.27;61.30;69247.41;4946718;29;20163;-78
2022/08/15 08:53:44;;;;;;;11.27;6.90;;;;;;;22.24;61.13;69249.38;4944220;28;20156;-77
2022/08/15 08:56:25;;;;;;;19.13;7.97;;;;;;;22.31;61.52;69251.41;4947194;29;20143;-78
2022/08/15 08:58:52;;;;;;;38.00;9.23;;;;;;;;;;4945053;29;20059;-77
2022/08/15 09:01:23;;;;;;;10.63;5.93;;;;;;;22.42;61.12;69263.44;4930515;29;20135;-77
2022/08/15 09:03:53;;;;;;;9.45;5.45;;;;;;;22.44;61.86;69266.28;4931809;28;20036;-78
2022/08/15 09:06:23;;;;;;;10.10;6.38;;;;;;;22.46;61.69;69274.00;4933199;28;20442;-78
2022/08/15 09:09:15;;;;;;;11.10;7.10;;;;;;;;;;4932670;29;20040;-79
2022/08/15 09:11:46;;;;;;;10.32;7.13;;;;;;;;;;4904266;29;20456;-77
2022/08/15 09:14:11;;;;;;;11.30;6.05;;;;;;;;;;4933495;29;20048;-78
2022/08/15 09:16:38;;;;;;;10.48;7.22;;;;;;;22.52;62.28;69274.88;4933247;29;20111;-78
2022/08/15 09:19:11;;;;;;;13.07;7.20;;;;;;;22.59;62.55;69282.31;4931835;29;20044;-78
2022/08/15 09:21:38;;;;;;;12.20;6.38;;;;;;;22.60;63.04;69284.03;4933330;29;20078;-78
2022/08/15 09:24:05;;;;;;;8.43;6.15;;;;;;;22.54;63.65;69277.16;4938384;28;20051;-78
2022/08/15 09:26:50;;;;;;;12.88;7.15;;;;;;;22.61;64.09;69290.59;4936196;29;20051;-78
2022/08/15 09:29:21;;;;;;;10.07;6.70;;;;;;;22.62;64.71;69285.75;4931730;28;20071;-78
2022/08/15 09:31:53;;;;;;;10.88;6.47;;;;;;;;;;4932737;28;20183;-78
2022/08/15 09:34:53;;;;;;;10.18;6.97;;;;;;;22.61;64.03;69290.59;4934982;28;20044;-77
2022/08/15 09:37:26;;;;;;;10.93;7.07;;;;;;;22.70;64.00;69300.34;4915238;29;20175;-77
2022/08/15 09:40:19;;;;;;;11.85;6.28;;;;;;;22.66;63.91;69296.31;4936251;29;20126;-78
2022/08/15 09:43:02;;;;;;;10.48;6.78;;;;;;;22.75;64.50;69306.63;4912326;29;20050;-78
2022/08/15 09:45:46;;;;;;;11.07;6.72;;;;;;;;;;4927809;29;20082;-78
2022/08/15 09:48:24;;;;;;;9.30;6.43;;;;;;;;;;4930385;29;20055;-77
2022/08/15 09:51:13;;;;;;;9.17;5.97;;;;;;;22.92;64.52;69314.69;4928642;29;20419;-78
2022/08/15 09:53:38;;;;;;;;;;;;;;;;;;4931036;29;20049;-75
2022/08/15 09:56:09;;;;;;;8.73;6.63;;;;;;;23.02;64.01;69325.59;4931075;29;20013;-78
2022/08/15 09:58:38;;;;;;;9.85;6.55;;;;;;;23.01;64.20;69329.88;4926701;29;20051;-78
2022/08/15 10:01:19;;;;;;;;;;;;;;;23.01;63.93;69329.88;4930600;29;20512;-75
2022/08/15 10:03:44;;;;;;;10.05;6.45;;;;;;;22.96;64.56;69324.16;4902672;29;19918;-78
2022/08/15 10:06:22;;;;;;;11.48;5.93;;;;;;;23.12;64.29;69342.47;4929904;29;20050;-78
2022/08/15 10:08:53;;;;;;;11.60;6.40;;;;;;;23.16;64.21;69351.91;4910151;29;20054;-78
2022/08/15 10:11:39;;;;;;;9.35;6.00;;;;;;;23.30;64.05;69361.94;4930206;29;20131;-78
2022/08/15 10:14:27;;;;;;;8.23;5.75;;;;;;;;;;4929356;29;20039;-77
2022/08/15 10:17:04;;;;;;;10.32;6.15;;;;;;;23.26;62.96;69357.38;4911019;29;20131;-78
2022/08/15 10:19:34;;;;;;;11.18;6.40;;;;;;;23.27;62.36;69364.50;4930650;29;20903;-77
2022/08/15 10:22:24;;;;;;;10.80;5.93;;;;;;;23.28;62.89;69360.25;4930504;29;20090;-78
2022/08/15 10:25:15;;;;;;;15.35;6.47;;;;;;;23.33;62.80;69371.41;4919936;29;20051;-78
2022/08/15 10:27:59;;;;;;;9.27;6.05;;;;;;;23.38;62.85;69376.56;4928440;29;20044;-78
2022/08/15 10:30:30;;;;;;;9.75;6.22;;;;;;;23.38;61.84;69376.56;4926636;29;20043;-78
2022/08/15 10:32:56;;;;;;;10.80;6.10;;;;;;;;;;4929767;29;20697;-78
2022/08/15 10:35:43;;;;;;;9.45;6.32;;;;;;;23.52;62.40;69392.03;4929446;29;20044;-78
2022/08/15 10:38:13;;;;;;;8.40;5.50;;;;;;;23.57;62.33;69390.19;4929523;29;21453;-78
2022/08/15 10:41:13;;;;;;;8.55;6.07;;;;;;;23.57;62.52;69398.34;4929810;29;20040;-76
2022/08/15 10:44:06;;;;;;;9.13;6.82;;;;;;;23.57;61.91;69389.59;4927972;29;20054;-78
2022/08/15 10:46:40;;;;;;;10.55;6.40;;;;;;;23.56;62.20;69388.44;4923055;29;20071;-79
2022/08/15 10:49:27;;;;;;;10.57;5.93;;;;;;;23.58;62.35;69394.03;4928957;28;20573;-78
2022/08/15 10:52:16;;;;;;;11.70;6.22;;;;;;;23.60;62.45;69395.75;4924504;29;20389;-79
2022/08/15 10:55:12;;;;;;;7.97;5.72;;;;;;;23.64;61.91;69400.34;4927485;29;20044;-78
2022/08/15 10:57:52;;;;;;;7.85;6.15;;;;;;;23.64;62.17;69400.91;4927154;29;20055;-78
2022/08/15 11:00:37;;;;;;;7.70;6.28;;;;;;;23.66;61.61;69402.63;4926488;29;20519;-79
2022/08/15 11:03:10;;;;;;;8.38;6.07;;;;;;;23.77;61.68;69414.69;4921143;29;20043;-78
2022/08/15 11:05:36;;;;;;;8.48;5.93;;;;;;;23.76;61.39;69419.53;4926161;29;20044;-78
2022/08/15 11:08:02;;;;;;;9.80;5.43;;;;;;;23.75;61.58;69412.41;4929345;29;20050;-78
2022/08/15 11:10:32;;;;;;;8.60;6.13;;;;;;;23.76;61.36;69410.81;4927507;29;20042;-77
2022/08/15 11:13:06;;;;;;;7.85;5.50;;;;;;;23.71;61.37;69408.41;4929803;29;20156;-78
2022/08/15 11:15:46;;;;;;;9.30;5.35;;;;;;;23.76;61.61;69411.38;4924463;29;20415;-76
2022/08/15 11:18:11;;;;;;;8.48;5.90;;;;;;;23.64;61.73;69400.91;4928910;29;20084;-78
2022/08/15 11:20:40;;;;;;;7.32;5.78;;;;;;;;;;4925678;29;20230;-77
2022/08/15 11:23:05;;;;;;;10.98;5.60;;;;;;;;;;4925618;29;20101;-77
2022/08/15 11:25:34;;;;;;;8.77;5.07;;;;;;;23.81;61.72;69419.28;4928757;29;20443;-77
2022/08/15 11:28:02;;;;;;;;;;;;;;;23.80;62.03;69418.13;4927531;29;20798;-75
2022/08/15 11:30:29;;;;;;;9.52;5.70;;;;;;;23.82;61.69;69412.25;4927856;29;19922;-77
2022/08/15 11:32:54;;;;;;;7.55;5.95;;;;;;;;;;4928736;29;20039;-77
2022/08/15 11:35:29;;;;;;;10.33;5.80;;;;;;;23.93;60.99;69433.03;4939055;28;20043;-77
2022/08/15 11:37:58;;;;;;;8.93;5.88;;;;;;;23.93;61.38;69432.44;4928869;29;20368;-77
2022/08/15 11:40:35;;;;;;;9.18;6.45;;;;;;;23.89;61.64;69427.88;4929345;29;20102;-78
2022/08/15 11:43:04;;;;;;;10.65;5.75;;;;;;;23.91;61.51;69430.75;4927788;29;20047;-77
2022/08/15 11:45:29;;;;;;;;;;;;;;;;;;4921651;29;20716;-78
2022/08/15 11:47:57;;;;;;;10.38;5.70;;;;;;;23.93;62.23;69432.44;4928889;29;20306;-78
2022/08/15 11:50:38;;;;;;;8.68;5.75;;;;;;;24.04;61.06;69445.06;4929132;29;20407;-78
2022/08/15 11:53:07;;;;;;;8.73;5.28;;;;;;;24.08;62.08;69449.66;4927908;29;20044;-77
2022/08/15 11:55:32;;;;;;;9.07;5.60;;;;;;;24.14;62.54;69453.81;4927956;29;20134;-77
2022/08/15 11:58:17;;;;;;;9.07;5.28;;;;;;;24.10;62.62;69457.94;4925254;29;20840;-78
2022/08/15 12:00:45;;;;;;;8.27;5.50;;;;;;;;;;4922953;29;20396;-78
2022/08/15 12:03:19;;;;;;;7.65;4.82;;;;;;;;;;4922773;29;20071;-77
2022/08/15 12:05:46;;;;;;;8.75;5.47;;;;;;;24.26;62.09;69469.72;4925985;29;22087;-79
2022/08/15 12:08:11;;;;;;;7.30;5.05;;;;;;;24.25;61.37;69466.41;4930775;29;20036;-77
2022/08/15 12:10:41;;;;;;;8.15;4.85;;;;;;;;;;4930085;29;20275;-78
2022/08/15 12:13:07;;;;;;;8.95;5.45;;;;;;;24.52;61.97;69496.25;4919852;29;20044;-77
2022/08/15 12:15:33;;;;;;;9.35;5.35;;;;;;;24.61;61.61;69503.84;4926417;29;20043;-78
2022/08/15 12:18:04;;;;;;;9.68;5.72;;;;;;;24.72;61.44;69521.91;4934927;29;20051;-78
2022/08/15 12:20:59;;;;;;;7.47;5.55;;;;;;;24.80;61.16;69527.81;4934901;29;20039;-77
2022/08/15 12:23:35;;;;;;;10.85;6.82;;;;;;;;;;4931429;29;20412;-77
2022/08/15 12:26:07;;;;;;;7.10;5.95;;;;;;;;;;4931014;29;20700;-77
2022/08/15 12:28:34;;;;;;;11.05;6.22;;;;;;;;;;4926094;29;20051;-78
2022/08/15 12:31:04;;;;;;;9.23;5.97;;;;;;;25.21;58.95;69576.44;4930023;29;20452;-78
2022/08/15 12:33:31;;;;;;;9.65;6.50;;;;;;;25.35;58.85;69587.03;4944795;28;20039;-78
2022/08/15 12:35:57;;;;;;;10.35;5.97;;;;;;;25.32;59.30;69586.34;4928682;29;20046;-78
2022/08/15 12:38:23;;;;;;;12.90;6.97;;;;;;;25.35;59.17;69592.50;4929275;29;20039;-78
2022/08/15 12:40:50;;;;;;;9.85;6.85;;;;;;;25.54;59.03;69613.16;4927034;29;20044;-78